Time;durP1;ratioP1;P1;durP2;ratioP2;P2;SDS_P1;SDS_P2;PMS_P1;PMS_P2;Temp;Humidity;BMP_temperature;BMP_pressure;BME280_temperature;BME280_humidity;BME280_pressure;Samples;Min_cycle;Max_cycle;Signal;HPM_P1;HPM_P2
2024/03/02 00:01:06;;;;;;;15.88;14.38;;;;;;;;;;5001401;28;20021;-63
2024/03/02 00:03:33;;;;;;;17.02;15.10;;;;;;;;;;5013670;28;20049;-62
2024/03/02 00:05:59;;;;;;;16.17;13.90;;;;;;;;;;5013452;28;20037;-63
2024/03/02 00:08:26;;;;;;;17.58;14.57;;;;;;;;;;5014333;28;20056;-62
2024/03/02 00:10:58;;;;;;;17.55;15.85;;;;;;;;;;5014570;28;20036;-62
2024/03/02 00:13:25;;;;;;;18.27;16.30;;;;;;;;;;5014337;28;20133;-62
2024/03/02 00:15:55;;;;;;;16.23;14.52;;;;;;;;;;5014498;28;20033;-63
2024/03/02 00:18:30;;;;;;;14.63;12.40;;;;;;;;;;5014489;28;20022;-63
2024/03/02 00:20:57;;;;;;;15.43;13.35;;;;;;;;;;5012900;28;20042;-63
2024/03/02 00:23:23;;;;;;;15.80;14.18;;;;;;;;;;5014314;28;20033;-62
2024/03/02 00:35:00;;;;;;;16.83;14.05;;;;;;;;;;5007225;28;20037;-63
2024/03/02 00:37:26;;;;;;;16.15;14.52;;;;;;;;;;5013901;28;20034;-62
2024/03/02 00:39:52;;;;;;;17.95;16.05;;;;;;;;;;5014139;28;20030;-62
2024/03/02 00:42:18;;;;;;;17.23;15.48;;;;;;;;;;5013648;28;20045;-62
2024/03/02 00:44:44;;;;;;;16.67;13.80;;;;;;;;;;5008345;28;20112;-62
2024/03/02 00:47:35;;;;;;;17.92;15.95;;;;;;;;;;5008144;28;20028;-62
2024/03/02 00:50:02;;;;;;;15.27;13.60;;;;;;;;;;5004001;28;20034;-62
2024/03/02 00:52:29;;;;;;;14.68;13.18;;;;;;;;;;5004645;28;20030;-62
2024/03/02 00:54:57;;;;;;;15.10;13.70;;;;;;;;;;5009251;28;20028;-62
2024/03/02 00:57:25;;;;;;;15.85;14.20;;;;;;;;;;5008025;28;20026;-63
2024/03/02 00:59:51;;;;;;;15.80;14.20;;;;;;;;;;5015310;28;20037;-62
2024/03/02 01:02:19;;;;;;;15.88;14.23;;;;;;;;;;5013011;28;20367;-63
2024/03/02 01:04:46;;;;;;;15.75;14.18;;;;;;;;;;5004997;28;20105;-63
2024/03/02 01:07:11;;;;;;;22.40;16.85;;;;;;;;;;5013473;28;20123;-63
2024/03/02 01:09:37;;;;;;;16.35;14.48;;;;;;;;;;5013513;28;20053;-62
2024/03/02 01:12:04;;;;;;;15.40;13.82;;;;;;;;;;5011839;28;20041;-62
2024/03/02 01:14:30;;;;;;;14.88;13.25;;;;;;;;;;5011824;28;20050;-62
2024/03/02 01:16:56;;;;;;;14.65;13.23;;;;;;;;;;5013511;28;20036;-62
2024/03/02 01:19:22;;;;;;;15.45;13.90;;;;;;;;;;5011921;28;20036;-62
2024/03/02 01:21:50;;;;;;;18.50;14.73;;;;;;;;;;5013307;28;20032;-62
2024/03/02 01:24:16;;;;;;;16.52;14.18;;;;;;;;;;5012962;28;20033;-62
2024/03/02 01:26:42;;;;;;;16.90;13.10;;;;;;;;;;5013271;28;20044;-63
2024/03/02 01:29:08;;;;;;;21.63;16.83;;;;;;;;;;5013079;28;20495;-62
2024/03/02 01:31:34;;;;;;;17.13;14.07;;;;;;;;;;5013098;28;20026;-62
2024/03/02 01:34:00;;;;;;;19.67;16.58;;;;;;;;;;5013224;28;20172;-62
2024/03/02 01:36:26;;;;;;;19.27;15.45;;;;;;;;;;5011645;28;20025;-62
2024/03/02 01:38:52;;;;;;;19.27;14.90;;;;;;;;;;5012732;28;20037;-63
2024/03/02 01:41:18;;;;;;;16.65;13.02;;;;;;;;;;5013060;28;20124;-63
2024/03/02 01:43:44;;;;;;;17.77;14.98;;;;;;;;;;5005850;28;20059;-63
2024/03/02 01:46:10;;;;;;;15.05;12.27;;;;;;;;;;5010413;28;20026;-62
2024/03/02 01:48:36;;;;;;;13.82;11.88;;;;;;;;;;5002953;28;20022;-62
2024/03/02 01:51:02;;;;;;;13.38;11.32;;;;;;;;;;5011568;28;20088;-63
2024/03/02 01:53:29;;;;;;;12.93;11.02;;;;;;;;;;5013119;28;20033;-63
2024/03/02 01:55:55;;;;;;;14.25;12.77;;;;;;;;;;5012551;28;20025;-63
2024/03/02 01:58:21;;;;;;;17.25;14.32;;;;;;;;;;5012875;28;20025;-63
2024/03/02 02:00:47;;;;;;;16.63;11.88;;;;;;;;;;5012257;28;20136;-62
2024/03/02 02:03:14;;;;;;;13.63;12.02;;;;;;;;;;5012638;28;20116;-63
2024/03/02 02:05:42;;;;;;;13.38;11.80;;;;;;;;;;5012416;28;20053;-63
2024/03/02 02:08:08;;;;;;;15.02;12.75;;;;;;;;;;5012289;28;20049;-63
2024/03/02 02:10:34;;;;;;;18.20;13.18;;;;;;;;;;5012081;28;20037;-62
2024/03/02 02:13:00;;;;;;;12.20;10.75;;;;;;;;;;5012363;28;20042;-63
2024/03/02 02:15:27;;;;;;;13.50;11.13;;;;;;;;;;5012098;28;20022;-63
2024/03/02 02:17:53;;;;;;;16.17;12.32;;;;;;;;;;5011145;28;20034;-62
2024/03/02 02:20:19;;;;;;;12.93;10.23;;;;;;;;;;5011021;28;20117;-62
2024/03/02 02:22:55;;;;;;;12.77;10.88;;;;;;;;;;5009897;28;20583;-63
2024/03/02 02:25:21;;;;;;;13.90;11.23;;;;;;;;;;5010024;28;20030;-62
2024/03/02 02:27:47;;;;;;;11.60;9.95;;;;;;;;;;5010976;28;20033;-62
2024/03/02 02:30:13;;;;;;;10.93;9.80;;;;;;;;;;5011645;28;20117;-62
2024/03/02 02:32:39;;;;;;;12.50;10.65;;;;;;;;;;5011475;28;20029;-62
2024/03/02 02:35:05;;;;;;;15.77;12.55;;;;;;;;;;5011467;28;20415;-62
2024/03/02 02:37:59;;;;;;;11.55;9.38;;;;;;;;;;5012289;28;20022;-62
2024/03/02 02:40:25;;;;;;;12.82;11.50;;;;;;;;;;5004787;28;20048;-62
2024/03/02 02:42:54;;;;;;;14.23;11.38;;;;;;;;;;5012374;28;20022;-62
2024/03/02 02:45:20;;;;;;;14.30;11.77;;;;;;;;;;5012269;28;20038;-62
2024/03/02 02:47:46;;;;;;;12.40;10.43;;;;;;;;;;5012127;28;20037;-62
2024/03/02 02:50:12;;;;;;;20.20;14.52;;;;;;;;;;5012028;28;20045;-62
2024/03/02 02:52:40;;;;;;;15.50;12.40;;;;;;;;;;5011965;28;20069;-62
2024/03/02 02:55:07;;;;;;;17.15;13.10;;;;;;;;;;5011935;28;20475;-62
2024/03/02 02:57:38;;;;;;;16.83;12.30;;;;;;;;;;5010768;28;20034;-62
2024/03/02 03:00:14;;;;;;;16.95;13.20;;;;;;;;;;5011004;28;20040;-62
2024/03/02 03:02:41;;;;;;;16.90;12.98;;;;;;;;;;5012197;28;20057;-62
2024/03/02 03:05:07;;;;;;;16.45;12.52;;;;;;;;;;5012120;28;20018;-62
2024/03/02 03:07:37;;;;;;;17.27;13.85;;;;;;;;;;5012367;28;20084;-62
2024/03/02 03:10:04;;;;;;;18.17;14.48;;;;;;;;;;5011967;28;20029;-60
2024/03/02 03:12:31;;;;;;;18.63;14.20;;;;;;;;;;5011785;28;20049;-59
2024/03/02 03:14:57;;;;;;;18.13;13.27;;;;;;;;;;5011513;28;20049;-62
2024/03/02 03:17:23;;;;;;;15.07;11.52;;;;;;;;;;5011891;28;20050;-62
2024/03/02 03:19:49;;;;;;;18.95;13.55;;;;;;;;;;5011877;28;20050;-62
2024/03/02 03:22:15;;;;;;;22.83;15.55;;;;;;;;;;5013321;28;20026;-62
2024/03/02 03:24:41;;;;;;;16.65;13.00;;;;;;;;;;5015701;28;20056;-62
2024/03/02 03:27:07;;;;;;;17.25;13.52;;;;;;;;;;5013432;28;20472;-62
2024/03/02 03:29:33;;;;;;;20.20;14.60;;;;;;;;;;5011012;28;20081;-62
2024/03/02 03:31:59;;;;;;;18.27;12.07;;;;;;;;;;5015076;28;20038;-62
2024/03/02 03:34:25;;;;;;;16.80;13.27;;;;;;;;;;5015420;28;20049;-62
2024/03/02 03:36:51;;;;;;;21.00;13.23;;;;;;;;;;5015105;28;20124;-62
2024/03/02 03:39:17;;;;;;;13.18;11.88;;;;;;;;;;5012956;28;20038;-62
2024/03/02 03:41:43;;;;;;;20.42;14.80;;;;;;;;;;5015202;28;20026;-62
2024/03/02 03:44:09;;;;;;;14.63;12.13;;;;;;;;;;5015062;28;20029;-60
2024/03/02 03:46:35;;;;;;;20.95;13.05;;;;;;;;;;5015771;28;20034;-60
2024/03/02 03:49:01;;;;;;;19.70;14.82;;;;;;;;;;5011726;28;20033;-61
2024/03/02 03:51:27;;;;;;;14.43;12.20;;;;;;;;;;5014896;28;20387;-61
2024/03/02 03:53:53;;;;;;;16.33;13.50;;;;;;;;;;5013725;28;20025;-61
2024/03/02 03:56:19;;;;;;;19.15;14.50;;;;;;;;;;5014333;28;20028;-60
2024/03/02 03:58:45;;;;;;;18.17;13.35;;;;;;;;;;5014240;28;20026;-61
2024/03/02 04:01:11;;;;;;;17.20;14.93;;;;;;;;;;5014862;28;20026;-61
2024/03/02 04:03:38;;;;;;;22.63;14.43;;;;;;;;;;5014721;28;20439;-61
2024/03/02 04:06:04;;;;;;;23.20;16.88;;;;;;;;;;5014975;28;20032;-62
2024/03/02 04:08:30;;;;;;;18.33;13.43;;;;;;;;;;5014672;28;20025;-62
2024/03/02 04:10:56;;;;;;;18.42;13.32;;;;;;;;;;5015019;28;20556;-61
2024/03/02 04:13:22;;;;;;;20.80;16.20;;;;;;;;;;5014418;28;20077;-62
2024/03/02 04:15:48;;;;;;;19.73;15.05;;;;;;;;;;5014268;28;20400;-62
2024/03/02 04:18:14;;;;;;;18.75;14.23;;;;;;;;;;5015073;28;20018;-61
2024/03/02 04:20:40;;;;;;;16.55;14.05;;;;;;;;;;5014240;28;20037;-61
2024/03/02 04:23:07;;;;;;;20.45;15.30;;;;;;;;;;5014644;28;20068;-61
2024/03/02 04:25:33;;;;;;;22.50;16.77;;;;;;;;;;5014188;28;20030;-61
2024/03/02 04:27:59;;;;;;;18.60;14.55;;;;;;;;;;5014305;28;20045;-61
2024/03/02 04:30:25;;;;;;;21.50;15.45;;;;;;;;;;5014523;28;20507;-61
2024/03/02 04:32:51;;;;;;;19.77;17.02;;;;;;;;;;5014151;28;20026;-61
2024/03/02 04:35:17;;;;;;;20.15;15.70;;;;;;;;;;5013746;28;20025;-61
2024/03/02 04:37:43;;;;;;;24.65;17.30;;;;;;;;;;5014251;28;20116;-61
2024/03/02 04:40:10;;;;;;;23.15;17.17;;;;;;;;;;5014086;28;20121;-61
2024/03/02 04:42:36;;;;;;;22.05;14.95;;;;;;;;;;5014030;28;20156;-61
2024/03/02 04:45:02;;;;;;;18.65;15.70;;;;;;;;;;5013859;28;20068;-61
2024/03/02 04:47:28;;;;;;;16.58;13.63;;;;;;;;;;5014194;28;20034;-61
2024/03/02 04:49:54;;;;;;;18.23;14.75;;;;;;;;;;5013591;28;20089;-61
2024/03/02 04:52:20;;;;;;;23.52;17.38;;;;;;;;;;5013851;28;20034;-61
2024/03/02 04:57:31;;;;;;;21.67;17.02;;;;;;;;;;5013884;28;20080;-61
2024/03/02 04:59:57;;;;;;;22.65;16.83;;;;;;;;;;5013552;28;20476;-62
2024/03/02 05:02:23;;;;;;;19.58;14.85;;;;;;;;;;5013808;28;20057;-61
2024/03/02 05:04:49;;;;;;;16.15;14.40;;;;;;;;;;5013617;28;20041;-62
2024/03/02 05:07:15;;;;;;;21.27;16.58;;;;;;;;;;5012778;28;20112;-61
2024/03/02 05:09:42;;;;;;;18.42;15.05;;;;;;;;;;5012241;28;20026;-61
2024/03/02 05:14:53;;;;;;;14.73;12.38;;;;;;;;;;5013321;28;20056;-62
2024/03/02 05:17:19;;;;;;;21.52;14.40;;;;;;;;;;5009258;28;21291;-61
2024/03/02 05:19:44;;;;;;;17.33;13.38;;;;;;;;;;5007265;28;20045;-62
2024/03/02 05:22:10;;;;;;;13.55;10.98;;;;;;;;;;5007111;28;20022;-62
2024/03/02 05:24:36;;;;;;;20.38;13.32;;;;;;;;;;5007666;28;20026;-61
2024/03/02 05:27:02;;;;;;;16.92;12.25;;;;;;;;;;5000054;28;20034;-62
2024/03/02 05:29:28;;;;;;;15.82;12.00;;;;;;;;;;4997202;28;20040;-61
2024/03/02 05:31:54;;;;;;;12.27;9.82;;;;;;;;;;5001316;28;20040;-62
2024/03/02 05:34:20;;;;;;;13.52;10.43;;;;;;;;;;5007015;28;20106;-62
2024/03/02 05:36:46;;;;;;;12.88;9.55;;;;;;;;;;5012058;28;20496;-61
2024/03/02 05:39:12;;;;;;;9.50;8.40;;;;;;;;;;5011497;28;20052;-61
2024/03/02 05:41:38;;;;;;;12.88;10.10;;;;;;;;;;5012498;28;20108;-61
2024/03/02 05:44:05;;;;;;;10.85;8.48;;;;;;;;;;5028077;28;20025;-61
2024/03/02 05:46:31;;;;;;;14.02;10.45;;;;;;;;;;5011884;28;20026;-61
2024/03/02 05:48:57;;;;;;;16.48;10.32;;;;;;;;;;5012945;28;20026;-61
2024/03/02 05:51:23;;;;;;;11.48;8.23;;;;;;;;;;5012822;28;20018;-61
2024/03/02 05:53:49;;;;;;;12.13;9.68;;;;;;;;;;5012653;28;20031;-61
2024/03/02 05:56:15;;;;;;;12.55;9.40;;;;;;;;;;5006211;28;20072;-61
2024/03/02 06:01:28;;;;;;;15.35;9.30;;;;;;;;;;5012497;28;20057;-61
2024/03/02 06:03:56;;;;;;;14.13;8.55;;;;;;;;;;5012659;28;20040;-61
2024/03/02 06:06:23;;;;;;;10.20;8.10;;;;;;;;;;5012566;28;20038;-61
2024/03/02 06:08:50;;;;;;;13.65;8.85;;;;;;;;;;5012441;28;20547;-61
2024/03/02 06:14:38;;;;;;;13.30;8.20;;;;;;;;;;4982254;28;20073;-61
2024/03/02 06:17:05;;;;;;;11.88;9.02;;;;;;;;;;4971016;28;20537;-61
2024/03/02 06:19:31;;;;;;;12.30;8.15;;;;;;;;;;4973423;28;20096;-61
2024/03/02 06:21:57;;;;;;;17.88;8.95;;;;;;;;;;4973375;28;20098;-61
2024/03/02 06:24:23;;;;;;;11.13;9.05;;;;;;;;;;4973656;28;20026;-61
2024/03/02 06:26:49;;;;;;;10.65;8.15;;;;;;;;;;4972942;28;20027;-61
2024/03/02 06:29:15;;;;;;;10.55;8.50;;;;;;;;;;4973663;28;20038;-61
2024/03/02 06:31:41;;;;;;;11.60;9.20;;;;;;;;;;4972832;28;20156;-61
2024/03/02 06:34:08;;;;;;;14.27;9.85;;;;;;;;;;4973154;28;20026;-61
2024/03/02 06:36:34;;;;;;;12.52;9.05;;;;;;;;;;4973048;28;20038;-61
2024/03/02 06:39:00;;;;;;;13.57;9.52;;;;;;;;;;4971734;28;20073;-62
2024/03/02 06:41:26;;;;;;;14.07;10.05;;;;;;;;;;4972515;28;20417;-61
2024/03/02 06:43:59;;;;;;;22.75;12.43;;;;;;;;;;4972627;28;20035;-61
2024/03/02 06:46:25;;;;;;;10.18;8.73;;;;;;;;;;4973081;28;20039;-62
2024/03/02 06:48:51;;;;;;;12.90;9.70;;;;;;;;;;4973096;28;20074;-61
2024/03/02 06:51:17;;;;;;;9.63;7.93;;;;;;;;;;4971706;28;20218;-61
2024/03/02 06:53:43;;;;;;;12.23;9.38;;;;;;;;;;4972973;28;20130;-61
2024/03/02 06:56:09;;;;;;;17.55;11.60;;;;;;;;;;4972731;28;20496;-62
2024/03/02 06:58:35;;;;;;;13.50;10.10;;;;;;;;;;4976733;28;20030;-62
2024/03/02 07:01:01;;;;;;;15.25;11.50;;;;;;;;;;4976693;28;20122;-62
2024/03/02 07:03:27;;;;;;;15.88;9.85;;;;;;;;;;4976698;28;20023;-61
2024/03/02 07:05:53;;;;;;;14.88;10.13;;;;;;;;;;4976706;28;20023;-65
2024/03/02 07:08:19;;;;;;;16.17;11.80;;;;;;;;;;4976795;28;20097;-65
2024/03/02 07:10:46;;;;;;;12.25;9.57;;;;;;;;;;4976332;28;20086;-64
2024/03/02 07:13:13;;;;;;;14.32;10.60;;;;;;;;;;4976476;28;20025;-64
2024/03/02 07:18:23;;;;;;;20.75;12.68;;;;;;;;;;5006710;28;20502;-65
2024/03/02 07:20:49;;;;;;;18.73;12.30;;;;;;;;;;5015506;28;20041;-64
2024/03/02 07:23:15;;;;;;;14.20;11.02;;;;;;;;;;5014185;28;20409;-65
2024/03/02 07:25:41;;;;;;;20.17;12.98;;;;;;;;;;5007952;28;20060;-65
2024/03/02 07:28:07;;;;;;;16.73;12.13;;;;;;;;;;5015514;28;20018;-65
2024/03/02 07:30:34;;;;;;;12.63;10.13;;;;;;;;;;5015413;28;20084;-65
2024/03/02 07:33:00;;;;;;;21.63;12.95;;;;;;;;;;5015416;28;20030;-65
2024/03/02 07:35:31;;;;;;;18.85;13.45;;;;;;;;;;5015329;28;20028;-65
2024/03/02 07:37:57;;;;;;;19.65;12.35;;;;;;;;;;5014971;28;20022;-65
2024/03/02 07:40:23;;;;;;;18.73;13.55;;;;;;;;;;5015392;28;20518;-65
2024/03/02 07:42:49;;;;;;;16.40;12.70;;;;;;;;;;5013706;28;20076;-65
2024/03/02 07:45:15;;;;;;;16.63;12.30;;;;;;;;;;5015209;28;20025;-66
2024/03/02 07:47:41;;;;;;;15.23;10.65;;;;;;;;;;5015518;28;20033;-65
2024/03/02 07:53:11;;;;;;;14.70;9.68;;;;;;;;;;5002492;28;20037;-64
2024/03/02 07:55:37;;;;;;;14.88;11.82;;;;;;;;;;5012783;28;20044;-65
2024/03/02 07:58:03;;;;;;;13.05;10.40;;;;;;;;;;5014864;28;20368;-65
2024/03/02 08:00:29;;;;;;;15.30;10.25;;;;;;;;;;5014646;28;20442;-65
2024/03/02 08:02:56;;;;;;;18.67;11.52;;;;;;;;;;5014054;28;20066;-64
2024/03/02 08:05:22;;;;;;;11.90;10.15;;;;;;;;;;5014656;28;20033;-64
2024/03/02 08:07:52;;;;;;;13.75;10.63;;;;;;;;;;5014393;28;20250;-64
2024/03/02 08:10:18;;;;;;;15.50;10.60;;;;;;;;;;5013905;28;20026;-64
2024/03/02 08:12:44;;;;;;;12.50;10.60;;;;;;;;;;5013163;28;20040;-64
2024/03/02 08:15:10;;;;;;;14.40;10.77;;;;;;;;;;5014275;28;20038;-64
2024/03/02 08:17:36;;;;;;;17.00;10.88;;;;;;;;;;5014455;28;20042;-55
2024/03/02 08:20:02;;;;;;;13.23;9.82;;;;;;;;;;5012459;28;20044;-52
2024/03/02 08:22:28;;;;;;;14.18;8.70;;;;;;;;;;5014343;28;20040;-51
2024/03/02 08:24:54;;;;;;;10.27;8.07;;;;;;;;;;5013775;28;20026;-55
2024/03/02 08:27:20;;;;;;;12.30;9.80;;;;;;;;;;5012111;28;20029;-54
2024/03/02 08:29:46;;;;;;;12.43;8.40;;;;;;;;;;5025523;28;20022;-54
2024/03/02 08:32:12;;;;;;;19.60;9.52;;;;;;;;;;5014169;28;20467;-53
2024/03/02 08:35:07;;;;;;;11.45;7.93;;;;;;;;;;5011194;28;20069;-53
2024/03/02 08:37:33;;;;;;;10.63;7.05;;;;;;;;;;4999777;28;20116;-55
2024/03/02 08:39:59;;;;;;;10.55;7.40;;;;;;;;;;5013740;28;20049;-56
2024/03/02 08:42:25;;;;;;;9.73;5.95;;;;;;;;;;5013662;28;20459;-54
2024/03/02 08:44:51;;;;;;;8.23;6.05;;;;;;;;;;5013952;28;20464;-55
2024/03/02 08:47:17;;;;;;;10.60;6.88;;;;;;;;;;5013858;28;20018;-55
2024/03/02 08:49:43;;;;;;;14.63;6.75;;;;;;;;;;5013750;28;20049;-57
2024/03/02 08:52:09;;;;;;;12.70;7.10;;;;;;;;;;5012618;28;20479;-53
2024/03/02 08:54:36;;;;;;;14.57;7.28;;;;;;;;;;5012791;28;20076;-56
2024/03/02 08:57:02;;;;;;;11.18;7.13;;;;;;;;;;5012229;28;20032;-56
2024/03/02 08:59:28;;;;;;;16.08;7.55;;;;;;;;;;5013585;28;20113;-56
2024/03/02 09:01:54;;;;;;;11.35;6.20;;;;;;;;;;5013276;28;20127;-55
2024/03/02 09:04:20;;;;;;;7.55;6.18;;;;;;;;;;5013680;28;20021;-56
2024/03/02 09:06:46;;;;;;;11.32;7.50;;;;;;;;;;5012108;28;20471;-55
2024/03/02 09:09:12;;;;;;;14.40;7.72;;;;;;;;;;5013401;28;20068;-57
2024/03/02 09:11:38;;;;;;;8.27;5.63;;;;;;;;;;5005283;28;20432;-55
2024/03/02 09:14:05;;;;;;;8.60;6.70;;;;;;;;;;5008134;28;20022;-56
2024/03/02 09:16:31;;;;;;;8.88;6.05;;;;;;;;;;5012536;28;20065;-53
2024/03/02 09:18:57;;;;;;;8.55;6.15;;;;;;;;;;4999236;28;20475;-57
2024/03/02 09:24:26;;;;;;;7.70;5.03;;;;;;;;;;5009175;28;20044;-54
2024/03/02 09:26:52;;;;;;;5.07;4.57;;;;;;;;;;5012842;28;20476;-55
2024/03/02 09:29:20;;;;;;;5.68;3.92;;;;;;;;;;5013163;28;20084;-56
2024/03/02 09:31:46;;;;;;;8.73;5.25;;;;;;;;;;5012147;28;20101;-56
2024/03/02 09:34:14;;;;;;;8.20;5.03;;;;;;;;;;5009896;28;20068;-57
2024/03/02 09:36:41;;;;;;;6.78;5.35;;;;;;;;;;5009173;28;20096;-56
2024/03/02 09:39:09;;;;;;;8.65;5.68;;;;;;;;;;5012138;28;20046;-54
2024/03/02 09:41:35;;;;;;;5.53;4.80;;;;;;;;;;5012713;28;20388;-54
2024/03/02 09:44:01;;;;;;;7.10;4.80;;;;;;;;;;5011533;28;20061;-57
2024/03/02 09:46:27;;;;;;;6.22;5.45;;;;;;;;;;5005345;28;20036;-58
2024/03/02 09:48:53;;;;;;;6.97;4.82;;;;;;;;;;5005100;28;20108;-57
2024/03/02 09:51:20;;;;;;;7.38;5.88;;;;;;;;;;5007047;28;20040;-57
2024/03/02 09:53:48;;;;;;;6.13;5.53;;;;;;;;;;5007657;28;20595;-57
2024/03/02 09:56:15;;;;;;;8.80;7.00;;;;;;;;;;5007522;28;20033;-57
2024/03/02 09:58:42;;;;;;;10.35;7.63;;;;;;;;;;5004206;28;20460;-57
2024/03/02 10:01:09;;;;;;;9.38;7.40;;;;;;;;;;5002157;28;20042;-55
2024/03/02 10:03:37;;;;;;;10.60;7.60;;;;;;;;;;5006628;28;20034;-56
2024/03/02 10:06:22;;;;;;;8.05;6.45;;;;;;;;;;5009100;28;20038;-57
2024/03/02 10:08:51;;;;;;;6.72;5.55;;;;;;;;;;5003547;28;20034;-53
2024/03/02 10:11:31;;;;;;;6.00;4.90;;;;;;;;;;5007748;28;20108;-53
2024/03/02 10:14:10;;;;;;;5.13;4.38;;;;;;;;;;5010732;28;20034;-56
2024/03/02 10:16:40;;;;;;;5.18;4.60;;;;;;;;;;5010373;28;20042;-52
2024/03/02 10:19:19;;;;;;;5.18;3.97;;;;;;;;;;5012537;28;20022;-55
2024/03/02 10:21:46;;;;;;;6.53;4.10;;;;;;;;;;5003576;28;20036;-47
2024/03/02 10:24:12;;;;;;;4.43;3.22;;;;;;;;;;4999583;28;20030;-54
2024/03/02 10:26:38;;;;;;;6.82;3.47;;;;;;;;;;5009108;28;20018;-61
2024/03/02 10:29:04;;;;;;;5.22;4.15;;;;;;;;;;5000969;28;20058;-68
2024/03/02 10:31:31;;;;;;;6.07;3.95;;;;;;;;;;5011535;28;20080;-66
2024/03/02 10:33:58;;;;;;;4.60;3.80;;;;;;;;;;5010584;28;20037;-60
2024/03/02 10:36:25;;;;;;;3.50;3.20;;;;;;;;;;5012095;28;20026;-60
2024/03/02 10:38:54;;;;;;;3.55;3.20;;;;;;;;;;5010462;28;20163;-60
2024/03/02 10:41:23;;;;;;;3.50;3.20;;;;;;;;;;5009833;28;20033;-60
2024/03/02 10:43:51;;;;;;;3.75;3.35;;;;;;;;;;5018796;28;20328;-60
2024/03/02 10:46:51;;;;;;;5.28;3.42;;;;;;;;;;5011956;28;20026;-60
2024/03/02 10:49:17;;;;;;;4.63;3.70;;;;;;;;;;5007242;28;20025;-59
2024/03/02 10:51:43;;;;;;;4.25;3.33;;;;;;;;;;5001362;28;20049;-59
2024/03/02 10:54:09;;;;;;;4.50;3.28;;;;;;;;;;5003020;28;20030;-57
2024/03/02 10:56:40;;;;;;;4.15;3.45;;;;;;;;;;5011621;28;20066;-59
2024/03/02 10:59:24;;;;;;;5.68;3.92;;;;;;;;;;5004046;28;20026;-59
2024/03/02 11:01:51;;;;;;;4.60;4.20;;;;;;;;;;5011693;28;20037;-59
2024/03/02 11:04:19;;;;;;;6.35;5.22;;;;;;;;;;5011555;28;20029;-60
2024/03/02 11:06:51;;;;;;;5.07;4.32;;;;;;;;;;5011583;28;20034;-59
2024/03/02 11:09:20;;;;;;;4.78;4.38;;;;;;;;;;5006721;28;20076;-60
2024/03/02 11:11:50;;;;;;;6.70;5.10;;;;;;;;;;5011286;28;20038;-60
2024/03/02 11:14:17;;;;;;;3.65;3.30;;;;;;;;;;5002742;28;20484;-60
2024/03/02 11:16:44;;;;;;;5.45;4.15;;;;;;;;;;4997413;28;20093;-60
2024/03/02 11:19:14;;;;;;;5.10;4.40;;;;;;;;;;5010327;28;20042;-62
2024/03/02 11:21:40;;;;;;;6.10;5.05;;;;;;;;;;5008770;28;20033;-58
2024/03/02 11:24:22;;;;;;;6.50;4.80;;;;;;;;;;5011240;28;20553;-59
2024/03/02 11:26:51;;;;;;;13.15;7.57;;;;;;;;;;5011382;28;20026;-60
2024/03/02 11:29:35;;;;;;;7.70;6.75;;;;;;;;;;5011094;28;20061;-59
2024/03/02 11:32:04;;;;;;;15.13;7.82;;;;;;;;;;5000805;28;20480;-59
2024/03/02 11:34:31;;;;;;;10.15;8.15;;;;;;;;;;5011385;28;20372;-60
2024/03/02 11:36:58;;;;;;;13.20;8.10;;;;;;;;;;5011360;28;20037;-60
2024/03/02 11:39:25;;;;;;;11.90;8.60;;;;;;;;;;5011208;28;20113;-60
2024/03/02 11:41:51;;;;;;;13.63;9.85;;;;;;;;;;5005458;28;20445;-60
2024/03/02 11:44:17;;;;;;;13.25;9.43;;;;;;;;;;5012381;28;20053;-60
2024/03/02 11:46:45;;;;;;;15.73;11.50;;;;;;;;;;5006221;28;20076;-68
2024/03/02 11:49:15;;;;;;;14.10;10.25;;;;;;;;;;5014520;28;20130;-68
2024/03/02 11:51:50;;;;;;;13.65;10.32;;;;;;;;;;5014485;28;20121;-65
2024/03/02 11:54:17;;;;;;;10.50;8.80;;;;;;;;;;5014820;28;20484;-64
2024/03/02 11:56:44;;;;;;;9.88;7.78;;;;;;;;;;5013066;28;20030;-66
2024/03/02 11:59:13;;;;;;;10.65;8.90;;;;;;;;;;5014327;28;20030;-71
2024/03/02 12:01:39;;;;;;;13.80;10.98;;;;;;;;;;5012912;28;20395;-67
2024/03/02 12:04:05;;;;;;;13.35;9.85;;;;;;;;;;5013918;28;20017;-72
2024/03/02 12:06:31;;;;;;;12.82;9.55;;;;;;;;;;5014798;28;20053;-67
2024/03/02 12:08:58;;;;;;;35.60;25.02;;;;;;;;;;5009396;28;20014;-61
2024/03/02 12:11:24;;;;;;;15.77;11.52;;;;;;;;;;5013444;28;20517;-65
2024/03/02 12:13:54;;;;;;;13.90;10.48;;;;;;;;;;5014656;28;20030;-73
2024/03/02 12:16:24;;;;;;;11.68;9.30;;;;;;;;;;5014156;28;20104;-69
2024/03/02 12:18:50;;;;;;;14.75;8.55;;;;;;;;;;5014189;28;20034;-60
2024/03/02 12:21:16;;;;;;;10.23;8.20;;;;;;;;;;5012419;28;20039;-62
2024/03/02 12:23:42;;;;;;;11.25;8.10;;;;;;;;;;5013749;28;20088;-62
2024/03/02 12:26:08;;;;;;;8.90;6.70;;;;;;;;;;5000494;28;20022;-61
2024/03/02 12:28:34;;;;;;;8.30;6.90;;;;;;;;;;5014155;28;20057;-61
2024/03/02 12:31:00;;;;;;;9.43;7.72;;;;;;;;;;5011089;28;20494;-61
2024/03/02 12:33:27;;;;;;;9.52;7.07;;;;;;;;;;5014158;28;20387;-69
2024/03/02 12:35:53;;;;;;;8.85;7.57;;;;;;;;;;5013816;28;20117;-60
2024/03/02 12:38:19;;;;;;;11.35;7.35;;;;;;;;;;5004712;28;20144;-61
2024/03/02 12:40:45;;;;;;;8.18;6.93;;;;;;;;;;5012160;28;20403;-66
2024/03/02 12:43:11;;;;;;;10.20;8.32;;;;;;;;;;5013229;28;20105;-62
2024/03/02 12:45:37;;;;;;;8.10;6.50;;;;;;;;;;5013510;28;20163;-61
2024/03/02 12:48:05;;;;;;;10.15;7.93;;;;;;;;;;5013507;28;20026;-61
2024/03/02 12:50:31;;;;;;;9.38;7.75;;;;;;;;;;5013749;28;20484;-65
2024/03/02 12:52:57;;;;;;;10.20;8.10;;;;;;;;;;5013599;28;20109;-67
2024/03/02 12:55:23;;;;;;;10.25;8.77;;;;;;;;;;5012924;28;20025;-65
2024/03/02 13:01:09;;;;;;;11.88;8.35;;;;;;;;;;5008451;28;20512;-67
2024/03/02 13:03:36;;;;;;;10.35;7.07;;;;;;;;;;5013122;28;20022;-67
2024/03/02 13:06:02;;;;;;;9.77;8.07;;;;;;;;;;5010946;28;20022;-71
2024/03/02 13:08:28;;;;;;;9.85;7.82;;;;;;;;;;5009331;28;20065;-66
2024/03/02 13:10:55;;;;;;;8.68;7.60;;;;;;;;;;5011701;28;20056;-62
2024/03/02 13:13:23;;;;;;;11.52;8.00;;;;;;;;;;5012937;28;20024;-64
2024/03/02 13:15:48;;;;;;;9.73;7.93;;;;;;;;;;5012853;28;20042;-62
2024/03/02 13:18:14;;;;;;;8.88;7.13;;;;;;;;;;5011576;28;20044;-62
2024/03/02 13:20:40;;;;;;;12.77;9.48;;;;;;;;;;5013308;28;20034;-65
2024/03/02 13:23:06;;;;;;;10.75;8.85;;;;;;;;;;4999195;28;20069;-67
2024/03/02 13:25:33;;;;;;;10.27;8.85;;;;;;;;;;5004286;28;20511;-69
2024/03/02 13:27:59;;;;;;;9.48;7.95;;;;;;;;;;5007848;28;20423;-69
2024/03/02 13:30:25;;;;;;;11.48;8.57;;;;;;;;;;5005580;28;20026;-72
2024/03/02 13:32:51;;;;;;;11.32;9.32;;;;;;;;;;5010812;28;20022;-62
2024/03/02 13:35:17;;;;;;;12.25;9.38;;;;;;;;;;5012408;28;20452;-59
2024/03/02 13:37:43;;;;;;;11.45;9.48;;;;;;;;;;5011995;28;20025;-64
2024/03/02 13:40:13;;;;;;;12.95;9.55;;;;;;;;;;4999384;28;20033;-62
2024/03/02 13:42:40;;;;;;;11.63;7.65;;;;;;;;;;5010945;28;20428;-70
2024/03/02 13:45:09;;;;;;;10.50;9.40;;;;;;;;;;5001330;28;20022;-68
2024/03/02 13:47:35;;;;;;;10.48;9.15;;;;;;;;;;5004721;28;20352;-74
2024/03/02 13:50:02;;;;;;;11.13;9.00;;;;;;;;;;5012946;28;20018;-62
2024/03/02 13:52:28;;;;;;;11.48;9.55;;;;;;;;;;5012365;28;20050;-62
2024/03/02 13:54:54;;;;;;;11.73;10.35;;;;;;;;;;5012637;28;20108;-60
2024/03/02 13:57:20;;;;;;;12.15;8.68;;;;;;;;;;5012088;28;20022;-67
2024/03/02 13:59:46;;;;;;;12.93;10.75;;;;;;;;;;5012284;28;20070;-62
2024/03/02 14:02:13;;;;;;;12.52;10.13;;;;;;;;;;5012302;28;20427;-62
2024/03/02 14:04:39;;;;;;;13.20;10.63;;;;;;;;;;5012121;28;20080;-62
2024/03/02 14:07:08;;;;;;;11.32;9.13;;;;;;;;;;5011396;28;20026;-61
2024/03/02 14:18:51;;;;;;;13.82;11.55;;;;;;;;;;4980539;28;20460;-66
2024/03/02 14:21:17;;;;;;;16.17;11.68;;;;;;;;;;5006930;28;21214;-66
2024/03/02 14:23:43;;;;;;;13.63;11.25;;;;;;;;;;5005712;28;20093;-67
2024/03/02 14:26:09;;;;;;;16.95;12.90;;;;;;;;;;5009170;28;20021;-67
2024/03/02 14:28:35;;;;;;;14.85;12.38;;;;;;;;;;5006862;28;20041;-67
2024/03/02 14:31:01;;;;;;;12.00;10.60;;;;;;;;;;5004527;28;20472;-67
2024/03/02 14:33:28;;;;;;;16.92;12.85;;;;;;;;;;5008001;28;20029;-66
2024/03/02 14:35:54;;;;;;;12.63;11.25;;;;;;;;;;5008192;28;20029;-67
2024/03/02 14:38:20;;;;;;;13.80;11.13;;;;;;;;;;5010456;28;20026;-67
2024/03/02 14:40:46;;;;;;;15.32;12.90;;;;;;;;;;5007747;28;20061;-67
2024/03/02 14:43:13;;;;;;;13.95;11.82;;;;;;;;;;5007575;28;20026;-68
2024/03/02 14:45:39;;;;;;;13.27;11.27;;;;;;;;;;5011885;28;20045;-67
2024/03/02 14:48:05;;;;;;;17.92;12.90;;;;;;;;;;5012104;28;20014;-67
2024/03/02 14:50:31;;;;;;;16.15;11.60;;;;;;;;;;5011989;28;20034;-67
2024/03/02 14:52:57;;;;;;;14.02;10.98;;;;;;;;;;5011802;28;20464;-64
2024/03/02 14:55:23;;;;;;;15.13;11.52;;;;;;;;;;5011331;28;20028;-64
2024/03/02 14:57:49;;;;;;;15.27;11.82;;;;;;;;;;5006227;28;20544;-64
2024/03/02 15:00:15;;;;;;;19.38;14.25;;;;;;;;;;5011569;28;20456;-65
2024/03/02 15:02:42;;;;;;;14.25;12.13;;;;;;;;;;5011878;28;20329;-65
2024/03/02 15:05:08;;;;;;;12.55;10.82;;;;;;;;;;5011750;28;20022;-64
2024/03/02 15:07:34;;;;;;;13.95;12.05;;;;;;;;;;5011838;28;20484;-65